Time;durP1;ratioP1;P1;durP2;ratioP2;P2;SDS_P1;SDS_P2;PMS_P1;PMS_P2;Temp;Humidity;BMP_temperature;BMP_pressure;BME280_temperature;BME280_humidity;BME280_pressure;Samples;Min_cycle;Max_cycle;Signal;HPM_P1;HPM_P2
2022/12/26 00:00:10;;;;;;;6.60;5.23;;;11.10;99.90;;;;;;2617256;54;20404;-78
2022/12/26 00:05:58;;;;;;;6.40;4.90;;;11.00;99.90;;;;;;2618109;54;20362;-79
2022/12/26 00:11:46;;;;;;;7.87;5.63;;;11.00;99.90;;;;;;2618356;54;20122;-78
2022/12/26 00:17:33;;;;;;;7.70;4.90;;;11.00;99.90;;;;;;2618565;54;20118;-79
2022/12/26 00:23:21;;;;;;;7.80;5.67;;;11.00;99.90;;;;;;2619020;54;20146;-78
2022/12/26 00:29:09;;;;;;;6.80;4.80;;;11.00;99.90;;;;;;2619125;54;20606;-80
2022/12/26 00:38:25;;;;;;;4.30;3.40;;;10.90;99.90;;;;;;2618863;54;20426;-78
2022/12/26 00:44:15;;;;;;;5.13;4.10;;;10.90;99.90;;;;;;2618769;54;20927;-79
2022/12/26 00:50:03;;;;;;;5.20;4.43;;;10.90;99.90;;;;;;2618856;54;20374;-78
2022/12/26 00:55:51;;;;;;;4.10;3.57;;;10.90;99.90;;;;;;2619286;54;20432;-79
2022/12/26 01:01:39;;;;;;;5.07;4.07;;;10.80;99.90;;;;;;2618962;54;20375;-78
2022/12/26 01:07:27;;;;;;;5.30;3.53;;;10.90;99.90;;;;;;2618895;54;20227;-79
2022/12/26 01:13:15;;;;;;;5.13;4.00;;;10.90;99.90;;;;;;2618604;54;20734;-79
2022/12/26 01:19:03;;;;;;;3.90;2.90;;;10.90;99.90;;;;;;2619353;39;20521;-79
2022/12/26 01:24:57;;;;;;;5.00;3.90;;;10.80;99.90;;;;;;2619168;39;20750;-79
2022/12/26 01:30:45;;;;;;;4.57;3.67;;;10.80;99.90;;;;;;2618492;54;20375;-80
2022/12/26 01:39:55;;;;;;;9.90;5.33;;;10.80;99.90;;;;;;2618201;54;20431;-78
2022/12/26 01:45:49;;;;;;;9.93;6.97;;;10.80;99.90;;;;;;2619032;54;20624;-79
2022/12/26 01:51:41;;;;;;;12.33;7.83;;;10.90;99.90;;;;;;2618814;54;20535;-78
2022/12/26 02:09:53;;;;;;;14.03;10.70;;;10.90;99.90;;;;;;2618700;54;20407;-82
2022/12/26 02:15:41;;;;;;;11.03;8.30;;;10.90;99.90;;;;;;2617413;54;20363;-82
2022/12/26 02:21:35;;;;;;;10.87;9.07;;;10.90;99.90;;;;;;2617333;54;20646;-82
2022/12/26 03:18:34;;;;;;;6.20;5.60;;;10.90;99.90;;;;;;2617080;54;20452;-81
2022/12/26 03:24:22;;;;;;;5.30;4.80;;;10.80;99.90;;;;;;2617381;39;20801;-80
2022/12/26 04:46:11;;;;;;;9.30;6.60;;;10.20;99.90;;;;;;2623865;54;20387;-82
2022/12/26 04:52:00;;;;;;;10.90;8.70;;;10.20;99.90;;;;;;2624189;54;20399;-81
2022/12/26 04:57:47;;;;;;;13.13;10.10;;;10.20;99.90;;;;;;2623357;54;20399;-81
2022/12/26 05:09:42;;;;;;;10.33;8.10;;;10.20;99.90;;;;;;2623846;46;20441;-81
2022/12/26 05:28:40;;;;;;;9.17;6.83;;;10.20;99.90;;;;;;2624260;54;20647;-82
2022/12/26 05:31:10;;;;;;;8.03;6.87;;;10.10;99.90;;;;;;2618640;54;20961;-82
2022/12/26 05:40:19;;;;;;;9.57;7.67;;;10.00;99.90;;;;;;2618980;54;20375;-82
2022/12/26 05:46:07;;;;;;;8.23;6.00;;;10.00;99.90;;;;;;2619047;54;20118;-83
2022/12/26 05:51:55;;;;;;;8.33;5.40;;;10.00;99.90;;;;;;2619454;54;20456;-82
2022/12/26 05:57:43;;;;;;;9.07;6.17;;;10.10;99.90;;;;;;2620136;54;20199;-78
2022/12/26 06:03:31;;;;;;;7.20;5.93;;;10.10;99.90;;;;;;2620664;54;20279;-83
2022/12/26 06:09:19;;;;;;;10.97;6.33;;;10.20;99.90;;;;;;2627538;54;20359;-80
2022/12/26 06:15:07;;;;;;;9.13;5.83;;;10.20;99.90;;;;;;2626008;46;20169;-80
2022/12/26 06:20:55;;;;;;;9.13;6.00;;;10.20;99.90;;;;;;2626893;54;20460;-81
2022/12/26 06:26:44;;;;;;;7.70;5.60;;;10.20;99.90;;;;;;2630312;54;20126;-81
2022/12/26 06:32:32;;;;;;;7.53;5.10;;;10.10;99.90;;;;;;2628127;54;20125;-81
2022/12/26 06:35:45;;;;;;;9.47;5.93;;;10.20;99.90;;;;;;2627578;47;20459;-81
2022/12/26 06:41:33;;;;;;;8.37;4.97;;;10.10;99.90;;;;;;2628624;54;20391;-82
2022/12/26 06:47:21;;;;;;;8.27;5.60;;;10.00;99.90;;;;;;2627774;54;20162;-79
2022/12/26 06:53:09;;;;;;;6.13;5.27;;;10.10;99.90;;;;;;2628249;54;20196;-81
2022/12/26 06:58:59;;;;;;;6.93;6.03;;;10.10;99.90;;;;;;2627914;54;20126;-79
2022/12/26 07:04:47;;;;;;;5.47;4.37;;;10.10;99.90;;;;;;2627119;54;20414;-80
2022/12/26 07:10:36;;;;;;;8.13;5.43;;;10.20;99.90;;;;;;2619942;54;20139;-78
2022/12/26 07:16:24;;;;;;;7.47;4.73;;;10.30;99.90;;;;;;2619936;39;20882;-79
2022/12/26 07:22:12;;;;;;;5.90;5.00;;;10.50;99.90;;;;;;2626254;54;20972;-82
2022/12/26 07:27:59;;;;;;;5.93;4.90;;;10.50;99.90;;;;;;2626230;54;20142;-81
2022/12/26 07:33:49;;;;;;;6.73;4.60;;;10.60;99.90;;;;;;2625429;54;20224;-82
2022/12/26 07:39:37;;;;;;;8.67;4.77;;;10.60;99.90;;;;;;2624243;54;20387;-79
2022/12/26 07:45:25;;;;;;;8.70;4.53;;;10.60;99.90;;;;;;2624789;54;20118;-81
2022/12/26 07:51:13;;;;;;;9.17;5.90;;;10.60;99.90;;;;;;2624092;54;20146;-80
2022/12/26 07:57:01;;;;;;;9.00;6.20;;;10.60;99.90;;;;;;2624879;39;20757;-81
2022/12/26 08:02:51;;;;;;;10.33;5.30;;;10.60;99.90;;;;;;2625197;54;20133;-80
2022/12/26 08:08:39;;;;;;;6.27;5.00;;;10.60;99.90;;;;;;2627919;54;20479;-80
2022/12/26 08:14:27;;;;;;;5.60;4.70;;;10.60;99.90;;;;;;2626614;54;20174;-80
2022/12/26 08:20:16;;;;;;;5.90;4.57;;;10.80;99.90;;;;;;2624665;54;20146;-80
2022/12/26 08:26:09;;;;;;;7.47;4.57;;;10.80;99.90;;;;;;2621693;54;20163;-80
2022/12/26 08:31:57;;;;;;;6.47;4.70;;;10.90;99.90;;;;;;2623069;54;20431;-78
2022/12/26 08:41:07;;;;;;;8.40;4.77;;;10.90;99.90;;;;;;2627790;54;20407;-81
2022/12/26 08:46:56;;;;;;;7.37;3.37;;;10.80;99.90;;;;;;2628269;54;20387;-80
2022/12/26 08:52:44;;;;;;;5.00;3.10;;;10.80;99.90;;;;;;2626004;54;20395;-81
2022/12/26 08:58:34;;;;;;;5.47;3.00;;;10.80;99.90;;;;;;2627613;54;20127;-78
2022/12/26 09:04:22;;;;;;;5.70;2.43;;;10.90;99.90;;;;;;2626165;54;20446;-81
2022/12/26 09:10:09;;;;;;;5.97;2.43;;;10.80;99.90;;;;;;2624673;54;20134;-80
2022/12/26 09:16:06;;;;;;;8.93;2.67;;;10.90;99.90;;;;;;2624546;54;20146;-80
2022/12/26 09:22:49;;;;;;;3.50;1.90;;;10.80;99.90;;;;;;2625315;54;20362;-80
2022/12/26 09:28:01;;;;;;;2.10;1.70;;;10.90;99.90;;;;;;2623594;54;20427;-81
2022/12/26 09:33:49;;;;;;;2.17;1.33;;;10.90;99.90;;;;;;2620449;54;20158;-80
2022/12/26 09:43:25;;;;;;;5.87;2.50;;;11.10;99.90;;;;;;2621048;54;20383;-79
2022/12/26 10:05:28;;;;;;;4.00;2.03;;;12.00;99.90;;;;;;2620196;54;20370;-82
2022/12/26 10:24:26;;;;;;;3.93;2.20;;;11.50;99.90;;;;;;2618871;54;20394;-84
2022/12/26 10:30:24;;;;;;;5.50;2.60;;;11.50;99.90;;;;;;2617524;54;20391;-80
2022/12/26 10:36:32;;;;;;;2.47;1.80;;;11.60;99.90;;;;;;2618277;54;20459;-78
2022/12/26 10:48:48;;;;;;;2.53;1.67;;;11.50;99.90;;;;;;2616412;54;20391;-79
2022/12/26 10:54:36;;;;;;;10.53;1.70;;;11.50;99.90;;;;;;2615549;54;20431;-77
2022/12/26 11:00:26;;;;;;;2.57;1.93;;;11.50;99.90;;;;;;2615740;54;20122;-78
2022/12/26 11:09:39;;;;;;;8.03;2.07;;;11.40;99.90;;;;;;2615379;54;20416;-82
2022/12/26 11:15:29;;;;;;;2.50;1.93;;;11.40;99.90;;;;;;2617585;54;20412;-82
2022/12/26 11:21:24;;;;;;;2.27;1.73;;;11.30;99.90;;;;;;2617657;54;20378;-82
2022/12/26 11:27:19;;;;;;;5.00;2.57;;;11.40;99.90;;;;;;2618239;54;20451;-82
2022/12/26 11:33:09;;;;;;;5.27;2.40;;;11.50;99.90;;;;;;2619375;54;20503;-81
2022/12/26 11:36:33;;;;;;;4.40;2.60;;;11.40;99.90;;;;;;2617588;47;20407;-82
2022/12/26 11:42:59;;;;;;;4.70;2.30;;;11.20;99.90;;;;;;2619342;39;20781;-81
2022/12/26 11:45:29;;;;;;;2.53;2.10;;;11.10;99.90;;;;;;2617334;47;20422;-82
2022/12/26 11:57:36;;;;;;;11.83;2.73;;;10.90;99.90;;;;;;2617895;54;20508;-82
2022/12/26 12:16:38;;;;;;;3.23;2.50;;;13.20;99.90;;;;;;2617919;54;20415;-82
2022/12/26 12:29:18;;;;;;;3.93;2.80;;;15.10;82.70;;;;;;2617345;54;20514;-82
2022/12/26 12:41:28;;;;;;;6.20;2.37;;;12.00;99.90;;;;;;2617868;54;21122;-80
2022/12/26 12:44:21;;;;;;;5.40;2.43;;;11.90;99.90;;;;;;2618089;54;20455;-81
2022/12/26 12:56:46;;;;;;;7.13;2.43;;;9.20;99.90;;;;;;2617413;46;20410;-83
2022/12/26 13:09:17;;;;;;;3.40;2.47;;;9.00;99.90;;;;;;2617079;54;20374;-83
2022/12/26 13:11:45;;;;;;;9.90;2.57;;;9.00;99.90;;;;;;2616594;47;20526;-82
2022/12/26 13:20:50;;;;;;;5.00;2.90;;;8.90;99.90;;;;;;2617424;54;20407;-79
2022/12/26 13:26:43;;;;;;;6.63;3.23;;;8.90;99.90;;;;;;2615836;54;20414;-80
2022/12/26 13:32:32;;;;;;;4.97;3.77;;;8.90;99.90;;;;;;2616309;54;20395;-80
2022/12/26 13:38:22;;;;;;;5.13;2.83;;;8.90;99.90;;;;;;2616115;54;20407;-79
2022/12/26 13:50:56;;;;;;;7.07;4.10;;;9.00;99.90;;;;;;2616780;54;20479;-79
2022/12/26 13:56:44;;;;;;;9.40;4.33;;;9.00;99.90;;;;;;2616805;54;20962;-79
2022/12/26 14:02:50;;;;;;;10.67;5.20;;;8.80;99.90;;;;;;2616888;39;20493;-78
2022/12/26 14:08:44;;;;;;;16.30;5.70;;;8.80;99.90;;;;;;2616624;54;20430;-75
2022/12/26 14:21:18;;;;;;;14.70;7.77;;;8.30;99.90;;;;;;2615737;54;20386;-78
2022/12/26 14:33:34;;;;;;;11.20;5.00;;;8.10;99.90;;;;;;2617429;54;20350;-78
2022/12/26 14:39:34;;;;;;;15.80;5.87;;;7.90;99.90;;;;;;2615055;54;20426;-79
2022/12/26 14:45:27;;;;;;;9.43;4.00;;;7.80;99.90;;;;;;2615383;54;20454;-78
2022/12/26 14:51:18;;;;;;;8.40;4.37;;;7.80;99.90;;;;;;2614621;54;20411;-75
2022/12/26 14:57:42;;;;;;;12.33;4.33;;;7.70;99.90;;;;;;2615800;54;20924;-79
2022/12/26 15:36:21;;;;;;;11.70;5.23;;;7.40;99.90;;;;;;2612428;54;20399;-78
2022/12/26 15:42:28;;;;;;;5.60;4.40;;;7.40;99.90;;;;;;2613697;54;20430;-74
2022/12/26 15:48:26;;;;;;;7.67;4.70;;;7.30;99.90;;;;;;2614389;54;20439;-75
2022/12/26 16:00:55;;;;;;;7.47;3.70;;;7.20;99.90;;;;;;2610762;54;20382;-74
2022/12/26 16:11:16;;;;;;;4.37;3.10;;;7.00;99.90;;;;;;2613930;46;20535;-80
2022/12/26 16:27:53;;;;;;;4.37;3.10;;;6.60;99.90;;;;;;2615144;54;20399;-78
2022/12/26 16:33:42;;;;;;;6.73;3.60;;;6.60;99.90;;;;;;2614934;39;20776;-76
2022/12/26 16:39:29;;;;;;;9.27;3.70;;;6.70;99.90;;;;;;2614059;54;20382;-78
2022/12/26 16:54:57;;;;;;;7.90;4.30;;;6.50;99.90;;;;;;2615977;54;20503;-78
2022/12/26 17:07:07;;;;;;;7.00;4.90;;;6.20;99.90;;;;;;2631279;54;20399;-79
2022/12/26 17:12:59;;;;;;;9.90;4.70;;;6.00;99.90;;;;;;2630701;54;20411;-78
2022/12/26 17:25:33;;;;;;;5.53;3.97;;;5.90;99.90;;;;;;2631481;39;21427;-79
2022/12/26 17:31:43;;;;;;;10.93;4.53;;;5.90;99.90;;;;;;2630068;54;20364;-79
2022/12/26 17:37:32;;;;;;;9.37;3.43;;;5.80;99.90;;;;;;2630630;54;20364;-82
2022/12/26 17:43:43;;;;;;;10.87;4.43;;;5.70;99.90;;;;;;2615950;54;20468;-74
2022/12/26 17:49:31;;;;;;;6.90;3.60;;;5.80;99.90;;;;;;2615304;54;20387;-72
2022/12/26 17:55:25;;;;;;;8.93;4.50;;;5.80;99.90;;;;;;2614745;39;20910;-73
2022/12/26 18:01:14;;;;;;;9.90;4.00;;;5.70;99.90;;;;;;2612557;54;20406;-75
2022/12/26 18:07:02;;;;;;;4.73;3.80;;;5.60;99.90;;;;;;2613189;54;20459;-73
2022/12/26 18:12:51;;;;;;;7.90;3.80;;;5.60;99.90;;;;;;2613913;54;20418;-72
2022/12/26 18:18:41;;;;;;;8.87;3.47;;;5.60;99.90;;;;;;2614582;54;21029;-73
2022/12/26 18:24:29;;;;;;;8.57;4.50;;;5.40;99.90;;;;;;2614121;54;20916;-73
2022/12/26 18:30:20;;;;;;;10.63;3.50;;;5.30;99.90;;;;;;2613791;54;20943;-72
2022/12/26 18:36:11;;;;;;;6.83;2.97;;;5.30;99.90;;;;;;2614097;54;20451;-72
2022/12/26 18:39:12;;;;;;;14.60;3.50;;;5.20;99.90;;;;;;2613919;39;21178;-72
2022/12/26 18:41:37;;;;;;;6.47;3.80;;;5.20;99.90;;;;;;2613760;54;20451;-72
2022/12/26 18:47:25;;;;;;;9.43;4.33;;;5.10;99.90;;;;;;2614073;39;21321;-71
2022/12/26 18:53:13;;;;;;;8.43;3.27;;;4.90;99.90;;;;;;2615049;54;20182;-74
2022/12/26 18:59:01;;;;;;;5.80;4.13;;;5.00;99.90;;;;;;2614618;31;20557;-72
2022/12/26 19:04:49;;;;;;;6.07;4.60;;;4.90;99.90;;;;;;2614442;54;20222;-73
2022/12/26 19:10:37;;;;;;;10.00;3.43;;;4.90;99.90;;;;;;2614780;54;20992;-73
2022/12/26 19:13:06;;;;;;;8.73;2.90;;;4.80;99.90;;;;;;2613448;54;20430;-72
2022/12/26 19:15:33;;;;;;;5.13;3.70;;;4.70;99.90;;;;;;2614683;54;20149;-73
2022/12/26 19:21:22;;;;;;;10.90;4.67;;;4.80;99.90;;;;;;2612584;54;20399;-73
2022/12/26 19:27:09;;;;;;;9.10;3.30;;;4.80;99.90;;;;;;2613533;54;20395;-71
2022/12/26 19:32:57;;;;;;;5.33;4.00;;;4.70;99.90;;;;;;2613010;39;20662;-72
2022/12/26 19:38:45;;;;;;;11.33;4.50;;;4.70;99.90;;;;;;2612960;54;20126;-72
2022/12/26 19:44:32;;;;;;;5.20;3.30;;;4.60;99.90;;;;;;2614240;54;20154;-72
2022/12/26 19:50:20;;;;;;;4.87;2.70;;;4.50;99.90;;;;;;2615115;39;20979;-72
2022/12/26 19:56:09;;;;;;;7.60;2.80;;;4.50;99.90;;;;;;2614077;54;20187;-75
2022/12/26 20:01:58;;;;;;;6.80;3.20;;;4.50;99.90;;;;;;2614854;39;20764;-74
2022/12/26 20:07:46;;;;;;;13.07;5.40;;;4.60;99.90;;;;;;2614397;54;20371;-73
2022/12/26 20:13:35;;;;;;;7.40;4.33;;;4.50;99.90;;;;;;2612180;54;20387;-75
2022/12/26 20:19:23;;;;;;;7.67;4.27;;;4.40;99.90;;;;;;2613451;54;20378;-76
2022/12/26 20:25:12;;;;;;;7.23;4.17;;;4.30;99.90;;;;;;2612857;54;20556;-72
2022/12/26 20:37:30;;;;;;;17.93;4.90;;;4.30;99.90;;;;;;2611902;54;20385;-72
2022/12/26 20:43:20;;;;;;;11.73;6.27;;;4.00;99.90;;;;;;2612999;54;20414;-72
2022/12/26 20:49:08;;;;;;;13.93;6.43;;;4.00;99.90;;;;;;2614543;54;20373;-72
2022/12/26 20:54:56;;;;;;;11.83;4.80;;;3.90;99.90;;;;;;2614775;54;20385;-72
2022/12/26 21:00:45;;;;;;;13.17;4.07;;;3.80;99.90;;;;;;2613734;54;20134;-72
2022/12/26 21:06:36;;;;;;;15.17;4.77;;;3.80;99.90;;;;;;2613516;31;20901;-72
2022/12/26 21:12:23;;;;;;;7.00;2.67;;;3.80;99.90;;;;;;2614737;39;20801;-72
2022/12/26 21:18:11;;;;;;;5.80;3.60;;;3.80;99.90;;;;;;2614860;54;20659;-73
2022/12/26 21:24:01;;;;;;;10.07;4.40;;;3.70;99.90;;;;;;2615763;39;20636;-71
2022/12/26 21:29:49;;;;;;;12.33;4.70;;;3.70;99.90;;;;;;2615224;39;20806;-71
2022/12/26 21:35:36;;;;;;;9.43;3.70;;;3.90;99.90;;;;;;2615432;54;20149;-70
2022/12/26 21:41:24;;;;;;;12.57;3.30;;;4.10;99.90;;;;;;2615149;54;20198;-73
2022/12/26 21:47:12;;;;;;;5.67;3.80;;;4.30;99.90;;;;;;2614746;39;20876;-72
2022/12/26 21:53:00;;;;;;;7.00;2.80;;;4.30;99.90;;;;;;2615285;54;20135;-71
2022/12/26 22:04:54;;;;;;;6.17;3.73;;;4.10;99.90;;;;;;2614466;54;20475;-73
2022/12/26 22:16:52;;;;;;;10.80;4.13;;;4.10;99.90;;;;;;2614747;54;20395;-72
2022/12/26 22:22:40;;;;;;;9.33;5.00;;;4.30;99.90;;;;;;2615515;54;20383;-72
2022/12/26 22:28:29;;;;;;;3.30;2.43;;;4.30;99.90;;;;;;2614937;54;20391;-73
2022/12/26 22:34:17;;;;;;;4.90;3.50;;;4.30;99.90;;;;;;2615073;54;20446;-72
2022/12/26 22:43:45;;;;;;;7.97;3.13;;;4.30;99.90;;;;;;2613712;54;20410;-75
2022/12/26 22:49:33;;;;;;;8.60;3.60;;;4.30;99.90;;;;;;2614770;54;20382;-73
2022/12/26 22:55:21;;;;;;;6.47;2.83;;;4.20;99.90;;;;;;2615280;54;20628;-72
2022/12/26 23:01:17;;;;;;;5.17;3.23;;;4.30;99.90;;;;;;2614584;54;20170;-73
2022/12/26 23:07:05;;;;;;;15.00;3.77;;;4.10;99.90;;;;;;2614185;54;20562;-71
2022/12/26 23:12:54;;;;;;;11.10;3.43;;;4.10;99.90;;;;;;2615086;54;20435;-74
2022/12/26 23:22:12;;;;;;;11.37;3.67;;;4.10;99.90;;;;;;2613776;54;20414;-73
2022/12/26 23:24:37;;;;;;;6.53;2.40;;;4.20;99.90;;;;;;2614427;54;20387;-71
2022/12/26 23:30:29;;;;;;;5.27;3.30;;;4.20;99.90;;;;;;2614977;54;20223;-73
2022/12/26 23:36:17;;;;;;;9.30;2.80;;;4.10;99.90;;;;;;2613918;54;20429;-75
2022/12/26 23:42:16;;;;;;;11.40;3.20;;;4.20;99.90;;;;;;2612640;54;20174;-72
2022/12/26 23:48:03;;;;;;;11.73;4.93;;;4.20;99.90;;;;;;2613273;54;20150;-73
2022/12/26 23:53:51;;;;;;;4.00;3.00;;;4.10;99.90;;;;;;2612893;46;20431;-76
2022/12/26 23:59:38;;;;;;;8.27;3.60;;;4.20;99.90;;;;;;2610534;54;20147;-71
